Flight Track Log - Related Links

Times and Time Zones

All times are in EST time to prevent confusion due to time zone crossing. See the CSN6338 flight status page for this flight to view local times or setup timezone preferences in your user account.

Time Position Orientation Groundspeed Altitude Reporting Facility
EST Latitude Longitude Course Direction KTS MPH feet Rate Location/Type
Fri 06:09:00 AM 32.2694 119.0415 16° North  Level Estimated
Fri 06:10:00 AM 32.4012 119.0867 16° North  Level Estimated
Fri 06:11:00 AM 32.5330 119.1320 16° North  Level Estimated
Fri 06:12:00 AM 32.6647 119.1775 16° North  Level Estimated
Fri 06:13:00 AM 32.7965 119.2231 16° North  Level Estimated
Fri 06:14:00 AM 32.9282 119.2688 16° North  Level Estimated
Fri 06:15:00 AM 33.0599 119.3147 16° North  Level Estimated
Fri 06:16:00 AM 33.1916 119.3607 16° North  Level Estimated
Fri 06:17:00 AM 33.3233 119.4069 16° North  Level Estimated
Fri 06:18:00 AM 33.4550 119.4531 16° North  Level Estimated
Fri 06:19:00 AM 33.5866 119.4996 16° North  Level Estimated
Fri 06:20:00 AM 33.7182 119.5462 16° North  Level Estimated
Fri 06:21:00 AM 33.8498 119.5929 16° North  Level Estimated
Fri 06:22:00 AM 33.9814 119.6397 16° North  Level Estimated
Fri 06:23:00 AM 34.1130 119.6867 16° North  Level Estimated
Fri 06:24:00 AM 34.2446 119.7339 17° North  Level Estimated
Fri 06:25:00 AM 34.3761 119.7812 17° North  Level Estimated
Fri 06:26:00 AM 34.5076 119.8286 17° North  Level Estimated
Fri 06:27:00 AM 34.6391 119.8762 17° North  Level Estimated
Fri 06:28:00 AM 34.7706 119.9239 17° North  Level Estimated
Fri 06:29:00 AM 34.9021 119.9718 17° North  Level Estimated
Fri 06:30:00 AM 35.0335 120.0199 17° North  Level Estimated
Fri 06:31:00 AM 35.1649 120.0681 17° North  Level Estimated
Fri 06:32:00 AM 35.2963 120.1164 17° North  Level Estimated
Fri 06:33:00 AM 35.4277 120.1649 17° North  Level Estimated
Fri 06:34:00 AM 35.5591 120.2136 17° North  Level Estimated
Fri 06:35:00 AM 35.6905 120.2625 17° North  Level Estimated
Fri 06:36:00 AM 35.8218 120.3115 17° North  Level Estimated
Fri 06:37:00 AM 35.9531 120.3606 17° North  Level Estimated
Fri 06:38:00 AM 36.0844 120.4100 17° North  Level Estimated
Fri 06:39:00 AM 36.2157 120.4594 17° North  Level Estimated
Fri 06:40:00 AM 36.3469 120.5091 17° North  Level Estimated
Fri 06:41:00 AM 36.4781 120.5589 17° North  Level Estimated
Fri 06:42:00 AM 36.6093 120.6089 17° North  Level Estimated
Fri 06:43:00 AM 36.7405 120.6591 17° North  Level Estimated
Fri 06:44:00 AM 36.8717 120.7094 17° North  Level Estimated
Fri 06:45:00 AM 37.0028 120.7599 17° North  Level Estimated
Fri 06:46:00 AM 37.1340 120.8106 17° North  Level Estimated
Fri 06:47:00 AM 37.2651 120.8614 17° North  Level Estimated
Fri 06:48:00 AM 37.3961 120.9125 17° North  Level Estimated
Fri 06:49:00 AM 37.5272 120.9637 17° North  Level Estimated
Fri 06:50:00 AM 37.6582 121.0151 17° North  Level Estimated
Fri 06:51:00 AM 37.7892 121.0667 17° North  Level Estimated
Fri 06:52:00 AM 37.9202 121.1184 17° North  Level Estimated
Fri 06:53:00 AM 38.0512 121.1704 17° North  Level Estimated
Fri 06:54:00 AM 38.1821 121.2225 17° North  Level Estimated
Fri 06:55:00 AM 38.3131 121.2748 17° North  Level Estimated
Fri 06:56:00 AM 38.4440 121.3273 17° North  Level Estimated
Fri 06:57:00 AM 38.5748 121.3800 17° North  Level Estimated
Fri 06:58:00 AM 38.7057 121.4329 18° North  Level Estimated
Fri 06:59:00 AM 38.8365 121.4860 18° North  Level Estimated
Fri 07:00:00 AM 38.9657 121.5386 18° North  Level Estimated
Fri 07:01:00 AM 38.9657 121.5386 180° South  Level Estimated
Fri 07:02:00 AM 38.9657 121.5386 180° South  Level Estimated
Fri 07:03:00 AM 38.9657 121.5386 180° South  Level Estimated
Fri 07:04:00 AM 38.9657 121.5386 180° South  Level Estimated
Fri 07:05:00 AM 38.9657 121.5386 180° South  Level Estimated
Fri 07:06:00 AM 38.9657 121.5386 180° South  Level Estimated
Fri 07:07:00 AM 38.9657 121.5386 180° South  Level Estimated
Fri 07:08:00 AM 38.9657 121.5386 180° South  Level Estimated
Fri 07:09:00 AM 38.9657 121.5386 180° South  Level Estimated
Fri 07:10:00 AM 38.9657 121.5386 180° South  Level Estimated
Fri 07:11:00 AM 38.9657 121.5386 180° South  Level Estimated
Fri 07:12:00 AM 38.9657 121.5386 180° South  Level Estimated
Fri 07:13:00 AM 38.9657 121.5386 180° South  Level Estimated
Fri 07:14:00 AM 38.9657 121.5386 180° South  Level Estimated
Fri 07:15:00 AM 38.9657 121.5386 180° South  Level Estimated
Fri 07:16:00 AM 38.9657 121.5386 180° South  Level Estimated

Login

Don't have an account? Register now (free) for customized features, flight alerts, and more!